Airfield :
LOGIN :

Register | Disclaimer

   EN    FR    IT 

 










Legend :    VFR   Marginal VFR   IFR   Intensive IFR   Very Intensive IFR
Visi :
Ceiling :
>= 8 km
>= 3000ft
5 to 8 km
1000 to 3000 ft
1500m to 5 km
500 to 1000 ft
800 to 1500m
200 to 500 ft
< 800m
< 200 ft
Symbols :   Thunderstorms  Fog  Heavy snow  Heavy precipitations  Wind > 20 kt
SIGMETs :     Misc.  Thunderstorms  Icing  Turbulence  Mountain Waves  Volcanic Ashes







- Airport Elevation : 27 ft
- IATA code : PMI


LEPA - Palma de Mallorca

CURRENT METAR :
  • 211430Z 22007KT 190V250 9999 FEW022 30/21 Q1010 NOSIG

EXPIRED METARs :
  • 211400Z 23009KT 180V260 9999 FEW022 31/21 Q1010 NOSIG
  • 211330Z 23008KT 170V270 9999 FEW022 31/21 Q1010 NOSIG
  • 211300Z 22005KT 160V250 9999 FEW022 31/21 Q1010 NOSIG
  • 211230Z 19005KT 120V240 9999 SCT022 31/23 Q1010 NOSIG
  • 211200Z 10002KT 9999 SCT022 29/23 Q1011 TEMPO 3000 TSRA FEW020CB

TAF TAF LEPA
Valid from the 21 at 12:00 until the 22 at 12:00 UTC


211100Z 2112/2212 22010KT 9999 FEW015 SCT025 TX29/2112Z TN19/2206Z
PROB40
TEMPO 2112/2115 3000 TS BKN012 FEW050CB
BECMG 2120/2122 30005KT
TEMPO 2200/2207 3000 BR BKN015
BECMG 2210/2212 22010KT
No reported NOTAMs for that airfield.



MET'MAP, your aeronautical weather chart ! - Copyright ORBIFLY December 2007 - Disclaimer

ORBIFLY MET'MAP TEAM :

Programming & Development : Alexandra Zaïnal
Concept & Development : Baudouin d'Aumeries
Co-Development & Prog : Marc-Olivier Méhu
Technical & hardware support : Manuel Goepfert

Contact : metmap@orbifly.com




SOURCES & CREDITS :

   NOAA